Time;durP1;ratioP1;P1;durP2;ratioP2;P2;SDS_P1;SDS_P2;PMS_P1;PMS_P2;Temp;Humidity;BMP_temperature;BMP_pressure;BME280_temperature;BME280_humidity;BME280_pressure;Samples;Min_cycle;Max_cycle;Signal;HPM_P1;HPM_P2
2022/12/09 00:01:20;;;;;;;25.90;17.00;;;2.10;99.90;;;;;;4944865;28;20049;-62
2022/12/09 00:03:46;;;;;;;23.77;15.88;;;0.70;99.90;;;;;;4945600;28;20047;-62
2022/12/09 00:06:16;;;;;;;23.77;15.77;;;1.40;99.90;;;;;;4955003;28;20181;-62
2022/12/09 00:08:42;;;;;;;21.63;14.82;;;1.90;99.90;;;;;;4945795;28;20048;-62
2022/12/09 00:11:08;;;;;;;25.83;16.48;;;1.90;99.90;;;;;;4943735;28;20138;-62
2022/12/09 00:13:34;;;;;;;23.17;15.60;;;0.60;99.90;;;;;;4945474;29;20043;-62
2022/12/09 00:16:05;;;;;;;25.48;16.20;;;0.50;99.90;;;;;;4945630;28;20054;-62
2022/12/09 00:18:30;;;;;;;26.50;17.23;;;0.50;99.90;;;;;;4943995;29;20045;-63
2022/12/09 00:20:56;;;;;;;27.75;16.98;;;0.90;99.90;;;;;;4944689;28;20507;-63
2022/12/09 00:23:23;;;;;;;28.30;17.92;;;1.90;99.90;;;;;;4945050;29;20047;-64
2022/12/09 00:25:48;;;;;;;27.38;17.30;;;0.80;99.90;;;;;;4944903;29;20114;-62
2022/12/09 00:28:14;;;;;;;26.98;16.40;;;0.60;99.90;;;;;;4943422;29;20043;-62
2022/12/09 00:30:40;;;;;;;31.48;16.80;;;1.20;99.90;;;;;;4943898;28;20057;-62
2022/12/09 00:33:05;;;;;;;28.98;17.80;;;1.10;99.90;;;;;;4945064;28;20055;-62
2022/12/09 00:35:31;;;;;;;26.50;17.55;;;1.50;99.90;;;;;;4945068;29;20035;-62
2022/12/09 00:37:56;;;;;;;28.35;18.25;;;1.50;99.90;;;;;;4943828;28;20051;-62
2022/12/09 00:40:22;;;;;;;38.97;24.00;;;0.20;99.90;;;;;;4944558;28;20615;-62
2022/12/09 00:42:48;;;;;;;40.50;22.38;;;0.40;99.90;;;;;;4943676;29;20475;-62
2022/12/09 00:45:14;;;;;;;29.70;16.98;;;1.30;99.90;;;;;;4944656;28;20414;-62
2022/12/09 00:47:40;;;;;;;22.67;15.48;;;0.20;99.90;;;;;;4943374;28;20055;-61
2022/12/09 00:50:06;;;;;;;30.55;18.65;;;0.20;99.90;;;;;;4943706;29;20092;-62
2022/12/09 00:52:31;;;;;;;29.48;17.38;;;0.00;99.90;;;;;;4944868;29;20049;-62
2022/12/09 00:54:57;;;;;;;25.23;15.85;;;0.80;99.90;;;;;;4942717;28;20483;-62
2022/12/09 00:57:23;;;;;;;24.52;14.02;;;0.90;99.90;;;;;;4944384;28;20125;-62
2022/12/09 00:59:49;;;;;;;20.83;12.90;;;0.10;99.90;;;;;;4944916;28;20039;-62
2022/12/09 01:02:14;;;;;;;19.63;12.77;;;0.50;99.90;;;;;;4943023;29;20196;-62
2022/12/09 01:04:40;;;;;;;15.90;11.70;;;0.90;99.90;;;;;;4946264;28;20141;-62
2022/12/09 01:07:06;;;;;;;19.20;11.25;;;0.70;99.90;;;;;;4950857;28;20043;-62
2022/12/09 01:09:33;;;;;;;17.80;10.90;;;1.70;99.90;;;;;;4943328;28;20059;-63
2022/12/09 01:11:59;;;;;;;19.20;10.75;;;1.70;99.90;;;;;;4944754;29;20059;-61
2022/12/09 01:14:24;;;;;;;17.58;10.35;;;1.40;99.90;;;;;;4944175;28;20062;-62
2022/12/09 01:16:50;;;;;;;16.63;11.05;;;1.10;99.90;;;;;;4944023;28;20082;-61
2022/12/09 01:19:16;;;;;;;18.73;11.05;;;0.50;99.90;;;;;;4943198;29;20446;-62
2022/12/09 01:21:41;;;;;;;17.02;10.18;;;0.50;99.90;;;;;;4944211;29;20035;-61
2022/12/09 01:24:09;;;;;;;15.45;10.85;;;0.40;99.90;;;;;;4942705;28;20051;-62
2022/12/09 01:26:35;;;;;;;16.98;10.30;;;0.70;99.90;;;;;;4944587;28;20470;-62
2022/12/09 01:29:01;;;;;;;16.98;10.20;;;0.60;99.90;;;;;;4944436;28;20039;-62
2022/12/09 01:31:27;;;;;;;19.58;10.95;;;1.00;99.90;;;;;;4926908;29;20097;-63
2022/12/09 01:33:54;;;;;;;18.23;11.10;;;0.60;99.90;;;;;;4943419;28;20054;-62
2022/12/09 01:36:23;;;;;;;16.48;10.98;;;0.40;99.90;;;;;;4944029;28;20050;-62
2022/12/09 01:38:49;;;;;;;15.82;10.57;;;2.30;99.90;;;;;;4943454;29;20210;-63
2022/12/09 01:41:16;;;;;;;16.52;10.88;;;1.90;99.90;;;;;;4943470;29;20549;-62
2022/12/09 01:43:42;;;;;;;17.58;11.85;;;1.40;99.90;;;;;;4944257;28;20039;-61
2022/12/09 01:46:08;;;;;;;19.48;11.95;;;0.40;99.90;;;;;;4942603;28;20058;-62
2022/12/09 01:48:38;;;;;;;17.92;11.40;;;1.60;99.90;;;;;;4943999;28;20051;-62
2022/12/09 01:51:09;;;;;;;20.90;12.60;;;1.10;99.90;;;;;;4943549;28;20039;-62
2022/12/09 01:53:40;;;;;;;17.98;11.75;;;0.40;99.90;;;;;;4944138;28;20055;-62
2022/12/09 01:56:17;;;;;;;16.42;11.02;;;0.80;99.90;;;;;;4943258;28;20051;-63
2022/12/09 01:58:44;;;;;;;20.98;11.88;;;0.60;99.90;;;;;;4944180;28;20466;-62
2022/12/09 02:01:10;;;;;;;18.23;11.40;;;1.10;99.90;;;;;;4942647;28;20039;-62
2022/12/09 02:03:36;;;;;;;20.88;12.68;;;0.50;99.90;;;;;;4944316;28;20050;-63
2022/12/09 02:06:01;;;;;;;19.13;12.00;;;0.50;99.90;;;;;;4954215;28;20047;-62
2022/12/09 02:08:27;;;;;;;20.50;12.75;;;0.60;99.90;;;;;;4962756;28;20051;-62
2022/12/09 02:11:11;;;;;;;21.67;13.05;;;0.30;99.90;;;;;;4946509;28;20055;-61
2022/12/09 02:13:48;;;;;;;18.65;13.05;;;0.50;99.90;;;;;;4946798;29;20126;-62
2022/12/09 02:16:19;;;;;;;19.50;11.18;;;0.50;99.90;;;;;;5043317;23;20061;-62
2022/12/09 02:19:12;;;;;;;19.00;12.45;;;0.30;99.90;;;;;;4969607;28;20087;-62
2022/12/09 02:21:53;;;;;;;17.40;12.00;;;0.50;99.90;;;;;;4966174;28;20448;-62
2022/12/09 02:24:37;;;;;;;19.90;12.90;;;0.50;99.90;;;;;;4964504;28;20086;-62
2022/12/09 02:27:36;;;;;;;21.40;12.68;;;0.50;99.90;;;;;;4964170;28;20086;-62
2022/12/09 02:30:10;;;;;;;21.50;13.07;;;0.50;99.90;;;;;;4964593;28;20055;-62
2022/12/09 02:32:36;;;;;;;21.40;12.70;;;0.20;99.90;;;;;;4965009;28;20556;-62
2022/12/09 02:35:32;;;;;;;19.35;11.55;;;0.20;99.90;;;;;;4963055;28;20046;-63
2022/12/09 02:38:21;;;;;;;19.73;12.35;;;0.50;99.90;;;;;;4967046;28;20587;-62
2022/12/09 02:40:54;;;;;;;19.25;11.52;;;0.30;99.90;;;;;;4964302;28;20062;-62
2022/12/09 02:43:24;;;;;;;21.17;12.55;;;0.50;99.90;;;;;;4965850;28;20046;-62
2022/12/09 02:45:51;;;;;;;21.30;13.15;;;0.60;99.90;;;;;;4964577;28;20425;-62
2022/12/09 02:48:21;;;;;;;19.17;12.57;;;1.50;99.90;;;;;;4964407;28;20086;-62
2022/12/09 02:50:50;;;;;;;20.20;12.93;;;0.30;99.90;;;;;;4965644;28;20038;-62
2022/12/09 02:53:17;;;;;;;19.25;11.82;;;0.50;99.90;;;;;;4965407;28;20062;-62
2022/12/09 02:55:46;;;;;;;24.42;13.93;;;0.40;99.90;;;;;;4964480;28;20097;-63
2022/12/09 02:58:12;;;;;;;19.77;13.68;;;0.30;99.90;;;;;;4965452;28;20489;-62
2022/12/09 03:00:39;;;;;;;22.00;13.32;;;1.00;99.90;;;;;;4964261;28;20130;-62
2022/12/09 03:03:11;;;;;;;20.92;12.18;;;0.30;99.90;;;;;;4964873;28;20097;-62
2022/12/09 03:05:57;;;;;;;20.20;13.63;;;1.40;99.90;;;;;;4969719;28;20042;-62
2022/12/09 03:08:51;;;;;;;20.42;13.38;;;0.20;99.90;;;;;;4983878;28;20069;-62
2022/12/09 03:11:20;;;;;;;19.95;13.38;;;0.30;99.90;;;;;;4984534;28;20101;-62
2022/12/09 03:14:02;;;;;;;18.92;12.18;;;0.20;99.90;;;;;;4984219;28;20042;-62
2022/12/09 03:16:40;;;;;;;20.77;13.68;;;0.30;99.90;;;;;;4984187;28;20058;-62
2022/12/09 03:19:30;;;;;;;22.08;13.32;;;0.30;99.90;;;;;;4983679;28;20074;-62
2022/12/09 03:21:59;;;;;;;23.35;13.23;;;0.30;99.90;;;;;;4984251;28;20438;-62
2022/12/09 03:24:33;;;;;;;23.05;13.65;;;0.50;99.90;;;;;;4982822;28;20702;-62
2022/12/09 03:27:05;;;;;;;22.47;14.70;;;0.10;99.90;;;;;;4983391;28;20507;-62
2022/12/09 03:29:34;;;;;;;21.77;13.27;;;0.70;99.90;;;;;;4983868;28;20378;-62
2022/12/09 03:32:00;;;;;;;19.67;13.18;;;0.20;99.90;;;;;;4983991;28;20077;-62
2022/12/09 03:34:30;;;;;;;20.23;13.30;;;0.00;99.90;;;;;;4984563;28;20151;-62
2022/12/09 03:36:58;;;;;;;20.10;13.32;;;-0.30;99.90;;;;;;4984384;28;20050;-62
2022/12/09 03:39:29;;;;;;;24.45;14.27;;;0.90;99.90;;;;;;4982143;28;20046;-62
2022/12/09 03:41:58;;;;;;;23.42;14.57;;;0.10;99.90;;;;;;4983799;28;20046;-62
2022/12/09 03:45:02;;;;;;;22.30;13.35;;;0.20;99.90;;;;;;4983461;28;20096;-62
2022/12/09 03:47:28;;;;;;;23.73;13.63;;;0.00;99.90;;;;;;5020278;28;20135;-62
2022/12/09 03:49:54;;;;;;;22.65;13.68;;;1.60;99.90;;;;;;4990869;28;20062;-62
2022/12/09 03:52:30;;;;;;;21.20;13.13;;;-0.20;99.90;;;;;;4983008;28;20042;-62
2022/12/09 03:55:09;;;;;;;19.75;13.23;;;-0.30;99.90;;;;;;4983283;28;20051;-62
2022/12/09 03:57:39;;;;;;;22.80;13.65;;;-0.50;99.90;;;;;;4983459;28;20481;-63
2022/12/09 04:00:06;;;;;;;20.33;13.88;;;-0.60;99.90;;;;;;4984184;28;20050;-63
2022/12/09 04:02:31;;;;;;;23.95;13.65;;;-0.30;99.90;;;;;;4983773;28;20080;-62
2022/12/09 04:04:57;;;;;;;26.13;15.13;;;0.90;99.90;;;;;;4976177;28;20508;-62
2022/12/09 04:07:22;;;;;;;22.48;14.20;;;0.40;99.90;;;;;;4981469;28;20042;-62
2022/12/09 04:09:48;;;;;;;22.73;14.80;;;-0.70;99.90;;;;;;4982206;28;20034;-62
2022/12/09 04:12:14;;;;;;;22.48;14.48;;;-0.40;99.90;;;;;;4983328;28;20045;-62
2022/12/09 04:14:39;;;;;;;21.55;13.70;;;-0.60;99.90;;;;;;4982216;28;20045;-62
2022/12/09 04:17:05;;;;;;;20.98;14.18;;;-0.50;99.90;;;;;;4983179;28;20062;-62
2022/12/09 04:19:31;;;;;;;20.52;13.52;;;-0.50;99.90;;;;;;4983727;28;20507;-62
2022/12/09 04:21:56;;;;;;;22.65;13.48;;;-0.60;99.90;;;;;;4983312;28;20133;-62
2022/12/09 04:24:22;;;;;;;24.85;12.88;;;0.80;99.90;;;;;;4981091;28;20122;-63
2022/12/09 04:26:48;;;;;;;20.58;12.55;;;-0.70;99.90;;;;;;4983423;28;20058;-62
2022/12/09 04:29:13;;;;;;;21.63;13.93;;;0.30;99.90;;;;;;4983015;28;20038;-62
2022/12/09 04:31:39;;;;;;;21.88;13.63;;;-0.30;99.90;;;;;;4982915;28;20642;-63
2022/12/09 04:34:05;;;;;;;19.88;12.95;;;-0.70;99.90;;;;;;4982274;28;20046;-62
2022/12/09 04:36:30;;;;;;;22.73;13.40;;;-0.70;99.90;;;;;;4982182;28;20113;-62
2022/12/09 04:38:56;;;;;;;21.38;12.98;;;1.50;99.90;;;;;;4982382;28;20034;-62
2022/12/09 04:41:21;;;;;;;21.98;12.10;;;0.90;99.90;;;;;;4982504;28;20054;-62
2022/12/09 04:43:47;;;;;;;20.75;10.63;;;0.10;99.90;;;;;;4981941;28;20072;-61
2022/12/09 04:46:15;;;;;;;21.05;13.23;;;-0.40;99.90;;;;;;4982526;28;20046;-62
2022/12/09 04:48:41;;;;;;;20.38;12.43;;;-0.50;99.90;;;;;;4983273;28;20061;-63
2022/12/09 04:51:08;;;;;;;22.50;13.65;;;-0.30;99.90;;;;;;4983136;28;20727;-63
2022/12/09 04:53:34;;;;;;;20.58;13.77;;;0.20;99.90;;;;;;4983174;28;20046;-62
2022/12/09 04:56:07;;;;;;;24.50;14.00;;;-0.10;99.90;;;;;;4982143;28;20112;-62
2022/12/09 04:58:32;;;;;;;23.00;14.07;;;-0.10;99.90;;;;;;4982249;28;20048;-62
2022/12/09 05:01:07;;;;;;;24.63;15.50;;;1.00;99.90;;;;;;4981546;28;20684;-61
2022/12/09 05:03:33;;;;;;;22.30;14.18;;;-0.40;99.90;;;;;;4982363;28;20446;-62
2022/12/09 05:05:58;;;;;;;20.63;13.77;;;0.20;99.90;;;;;;4974396;28;20058;-62
2022/12/09 05:08:24;;;;;;;20.13;13.02;;;1.30;99.90;;;;;;4961249;28;20046;-62
2022/12/09 05:10:49;;;;;;;20.20;14.25;;;-0.60;99.90;;;;;;4962728;28;20519;-62
2022/12/09 05:13:16;;;;;;;21.80;14.32;;;-0.70;99.90;;;;;;4963120;28;20138;-62
2022/12/09 05:15:41;;;;;;;25.55;14.40;;;-0.80;99.90;;;;;;4977735;28;20066;-63
2022/12/09 05:18:07;;;;;;;21.90;13.82;;;-0.70;99.90;;;;;;4978115;28;20122;-62
2022/12/09 05:20:33;;;;;;;20.27;13.30;;;-0.90;99.90;;;;;;4963635;28;20042;-61
2022/12/09 05:22:59;;;;;;;26.33;14.10;;;-1.10;99.90;;;;;;4962337;28;20093;-61
2022/12/09 05:25:24;;;;;;;23.10;13.68;;;-0.40;99.90;;;;;;4961446;28;20766;-62
2022/12/09 05:27:50;;;;;;;20.50;13.60;;;-0.10;99.90;;;;;;4962673;28;20808;-61
2022/12/09 05:30:16;;;;;;;23.83;13.63;;;-0.70;99.90;;;;;;4962970;28;20134;-61
2022/12/09 05:32:42;;;;;;;25.85;13.95;;;-0.60;99.90;;;;;;4962640;28;20601;-63
2022/12/09 05:35:08;;;;;;;26.35;14.65;;;-0.80;99.90;;;;;;4962155;28;20379;-62
2022/12/09 05:37:33;;;;;;;24.25;15.20;;;-0.90;99.90;;;;;;4962263;28;20100;-62
2022/12/09 05:39:59;;;;;;;23.27;14.85;;;-0.80;99.90;;;;;;4960917;28;20051;-62
2022/12/09 05:42:25;;;;;;;26.23;14.98;;;-0.80;99.90;;;;;;4962211;28;20478;-62
2022/12/09 05:44:50;;;;;;;25.60;15.32;;;-0.40;99.90;;;;;;4962081;28;20051;-62
2022/12/09 05:47:16;;;;;;;25.42;15.68;;;-0.70;99.90;;;;;;4963352;28;20070;-62
2022/12/09 05:49:41;;;;;;;23.92;14.73;;;-1.00;99.90;;;;;;4962779;28;20047;-63
2022/12/09 05:52:08;;;;;;;25.85;15.88;;;-0.80;99.90;;;;;;4961897;28;20042;-62
2022/12/09 05:54:34;;;;;;;26.52;14.90;;;0.00;99.90;;;;;;4960882;28;20058;-62
2022/12/09 05:57:02;;;;;;;24.27;15.15;;;-1.20;99.90;;;;;;4962704;28;20035;-62
2022/12/09 05:59:28;;;;;;;25.33;14.95;;;-1.00;99.90;;;;;;4962323;28;20062;-62
2022/12/09 06:01:54;;;;;;;26.65;15.05;;;-1.30;99.90;;;;;;4962518;28;20481;-62
2022/12/09 06:04:19;;;;;;;25.23;15.13;;;-1.10;99.90;;;;;;4964251;28;20118;-62
2022/12/09 06:06:45;;;;;;;24.83;15.32;;;-1.20;99.90;;;;;;4970190;28;20066;-62
2022/12/09 06:09:11;;;;;;;23.42;14.25;;;-1.20;99.90;;;;;;4961945;28;20043;-62
2022/12/09 06:11:38;;;;;;;21.80;13.10;;;-1.00;99.90;;;;;;4977252;28;20051;-62
2022/12/09 06:14:06;;;;;;;22.52;12.68;;;-0.40;99.90;;;;;;4962506;28;20136;-61
2022/12/09 06:16:32;;;;;;;21.63;12.50;;;-1.00;99.90;;;;;;4962901;28;20417;-61
2022/12/09 06:18:58;;;;;;;25.35;15.65;;;-1.20;99.90;;;;;;4962759;28;20059;-62
2022/12/09 06:21:23;;;;;;;26.40;15.05;;;-0.30;99.90;;;;;;4962093;28;20050;-61
2022/12/09 06:23:49;;;;;;;20.58;12.43;;;0.10;99.90;;;;;;4961256;28;20047;-62
2022/12/09 06:26:16;;;;;;;23.90;14.82;;;-0.20;99.90;;;;;;4962676;28;20177;-62
2022/12/09 06:28:42;;;;;;;26.80;15.10;;;0.40;99.90;;;;;;4961350;28;20047;-62
2022/12/09 06:31:08;;;;;;;27.60;14.82;;;-0.70;99.90;;;;;;4962633;28;20070;-62
2022/12/09 06:33:34;;;;;;;27.20;16.50;;;-0.90;99.90;;;;;;4960738;28;20105;-62
2022/12/09 06:36:01;;;;;;;25.83;15.52;;;-0.90;99.90;;;;;;4962225;28;20053;-62
2022/12/09 06:38:27;;;;;;;29.08;16.35;;;-0.90;99.90;;;;;;4976112;28;20062;-62
2022/12/09 06:40:53;;;;;;;28.30;16.60;;;-0.30;99.90;;;;;;4961658;28;20046;-62
2022/12/09 06:43:18;;;;;;;28.15;16.73;;;-1.10;99.90;;;;;;4962407;28;20047;-62
2022/12/09 06:45:44;;;;;;;29.00;17.58;;;-1.10;99.90;;;;;;4962452;28;20049;-62
2022/12/09 06:48:10;;;;;;;30.27;16.90;;;-0.80;99.90;;;;;;4962226;28;20055;-62
2022/12/09 06:50:36;;;;;;;25.88;15.73;;;0.90;99.90;;;;;;4962709;28;20086;-61
2022/12/09 06:53:02;;;;;;;27.50;15.52;;;-1.00;99.90;;;;;;4976489;28;20098;-62
2022/12/09 06:55:28;;;;;;;26.73;16.30;;;-0.80;99.90;;;;;;4966403;28;20055;-62
2022/12/09 06:57:53;;;;;;;30.20;17.02;;;-0.80;99.90;;;;;;4965533;28;20087;-62
2022/12/09 07:00:19;;;;;;;31.80;18.25;;;0.80;99.90;;;;;;4964575;28;20042;-62
2022/12/09 07:02:45;;;;;;;30.08;17.23;;;-0.40;99.90;;;;;;4966573;28;20490;-62
2022/12/09 07:05:11;;;;;;;29.17;17.85;;;-0.90;99.90;;;;;;4973591;28;20116;-62
2022/12/09 07:07:36;;;;;;;31.33;18.80;;;-0.80;99.90;;;;;;4966853;28;20449;-62
2022/12/09 07:10:04;;;;;;;32.50;18.75;;;-0.40;99.90;;;;;;4962951;28;20042;-62
2022/12/09 07:12:30;;;;;;;32.20;19.35;;;-1.10;99.90;;;;;;4964215;28;20047;-62
2022/12/09 07:14:56;;;;;;;32.30;17.92;;;-1.10;99.90;;;;;;4964774;28;20042;-62
2022/12/09 07:17:22;;;;;;;32.28;18.88;;;-1.10;99.90;;;;;;4965267;28;20050;-63
2022/12/09 07:19:47;;;;;;;33.08;18.27;;;-1.10;99.90;;;;;;4965116;28;20054;-63
2022/12/09 07:22:13;;;;;;;33.60;18.95;;;-1.10;99.90;;;;;;4981075;28;20053;-62
2022/12/09 07:24:39;;;;;;;31.98;18.85;;;-0.90;99.90;;;;;;4963488;28;20053;-62
2022/12/09 07:27:07;;;;;;;35.72;19.58;;;-1.10;99.90;;;;;;4964562;28;20043;-62
2022/12/09 07:29:34;;;;;;;32.28;19.27;;;-0.80;99.90;;;;;;4965337;28;20051;-62
2022/12/09 07:32:00;;;;;;;37.03;20.33;;;-0.50;99.90;;;;;;4964737;28;20090;-62
2022/12/09 07:34:25;;;;;;;33.72;17.98;;;-0.90;99.90;;;;;;4964106;28;20038;-62
2022/12/09 07:36:51;;;;;;;33.35;19.05;;;-0.50;99.90;;;;;;4965076;28;20035;-62
2022/12/09 07:39:17;;;;;;;34.63;19.95;;;-0.70;99.90;;;;;;4964183;28;20101;-62
2022/12/09 07:41:43;;;;;;;36.50;20.73;;;-1.10;99.90;;;;;;4965289;28;20053;-62
2022/12/09 07:44:10;;;;;;;39.08;21.40;;;0.00;99.90;;;;;;4962747;28;20055;-62
2022/12/09 07:46:37;;;;;;;34.67;19.55;;;-0.90;99.90;;;;;;4965236;28;20043;-62
2022/12/09 07:49:04;;;;;;;29.85;17.75;;;-0.90;99.90;;;;;;4964578;28;20085;-62
2022/12/09 07:51:30;;;;;;;34.75;20.13;;;-0.90;99.90;;;;;;4963390;28;20050;-62
2022/12/09 07:53:56;;;;;;;37.55;20.50;;;-1.10;99.90;;;;;;4963842;28;20043;-62
2022/12/09 07:56:22;;;;;;;37.00;21.05;;;0.70;99.90;;;;;;4964881;28;20047;-63
2022/12/09 07:58:53;;;;;;;37.80;21.20;;;-1.10;99.90;;;;;;4964745;28;20140;-62
2022/12/09 08:01:24;;;;;;;39.80;22.25;;;-1.10;99.90;;;;;;4964864;28;20057;-62
2022/12/09 08:03:50;;;;;;;38.15;21.20;;;-0.90;99.90;;;;;;4948466;28;20125;-63
2022/12/09 08:06:19;;;;;;;38.38;22.05;;;-1.10;99.90;;;;;;4973832;28;20051;-63
2022/12/09 08:08:45;;;;;;;39.30;22.08;;;1.00;99.90;;;;;;4963440;28;20042;-62
2022/12/09 08:11:23;;;;;;;41.28;22.88;;;-0.70;99.90;;;;;;4965177;28;20158;-63
2022/12/09 08:13:48;;;;;;;42.63;23.92;;;-1.10;99.90;;;;;;4979823;28;20130;-61
2022/12/09 08:16:17;;;;;;;40.90;22.63;;;-1.00;99.90;;;;;;4962050;28;20173;-61
2022/12/09 08:18:44;;;;;;;42.97;22.38;;;-0.80;99.90;;;;;;4964299;28;20101;-60
2022/12/09 08:21:22;;;;;;;40.20;22.95;;;-0.90;99.90;;;;;;4963547;28;20051;-62
2022/12/09 08:23:49;;;;;;;39.80;23.15;;;-0.70;99.90;;;;;;4961638;28;20046;-62
2022/12/09 08:26:16;;;;;;;41.92;22.98;;;-0.90;99.90;;;;;;4978998;28;20101;-62
2022/12/09 08:28:42;;;;;;;36.72;21.05;;;1.00;99.90;;;;;;4977900;28;20054;-62
2022/12/09 08:31:10;;;;;;;40.83;23.30;;;-0.70;99.90;;;;;;4962576;28;20047;-63
2022/12/09 08:33:36;;;;;;;38.97;22.25;;;-1.00;99.90;;;;;;4963669;28;20039;-63
2022/12/09 08:36:06;;;;;;;40.55;22.55;;;-0.10;99.90;;;;;;4981512;28;20049;-63
2022/12/09 08:38:32;;;;;;;40.78;20.73;;;-0.80;99.90;;;;;;4981918;28;20057;-62
2022/12/09 08:40:57;;;;;;;40.17;22.63;;;-0.70;99.90;;;;;;4982124;28;20046;-63
2022/12/09 08:43:23;;;;;;;42.25;23.58;;;-0.60;99.90;;;;;;4982641;28;20070;-63
2022/12/09 08:45:48;;;;;;;41.13;22.67;;;0.70;99.90;;;;;;4982598;28;20093;-62
2022/12/09 08:48:14;;;;;;;39.42;22.05;;;-0.60;99.90;;;;;;4983643;28;20915;-63
2022/12/09 08:50:40;;;;;;;40.33;23.85;;;0.20;99.90;;;;;;4981353;28;20767;-62
2022/12/09 08:53:05;;;;;;;41.45;23.13;;;-0.40;99.90;;;;;;4981450;28;20465;-62
2022/12/09 08:55:33;;;;;;;42.65;24.05;;;-0.10;99.90;;;;;;4982162;28;20709;-63
2022/12/09 08:57:59;;;;;;;39.53;21.23;;;-0.30;99.90;;;;;;4981125;28;20056;-63
2022/12/09 09:00:24;;;;;;;37.40;21.33;;;0.80;99.90;;;;;;4982580;28;20050;-62
2022/12/09 09:02:50;;;;;;;40.03;25.23;;;0.00;99.90;;;;;;4982820;28;20038;-62
2022/12/09 09:05:16;;;;;;;38.10;22.25;;;0.70;99.90;;;;;;4976584;28;20497;-62
2022/12/09 09:07:41;;;;;;;42.00;24.67;;;0.30;99.90;;;;;;4961706;28;20058;-62
2022/12/09 09:10:07;;;;;;;34.65;20.70;;;0.40;99.90;;;;;;4962223;28;20050;-62
2022/12/09 09:12:33;;;;;;;37.63;22.85;;;0.40;99.90;;;;;;4962349;28;20039;-62
2022/12/09 09:14:59;;;;;;;35.08;23.02;;;0.60;99.90;;;;;;4961998;28;20102;-62
2022/12/09 09:17:24;;;;;;;34.53;21.33;;;0.80;99.90;;;;;;4960777;28;20086;-63
2022/12/09 09:19:50;;;;;;;35.63;23.13;;;0.60;99.90;;;;;;4977686;28;20043;-62
2022/12/09 09:22:16;;;;;;;35.47;23.33;;;1.40;99.90;;;;;;4961685;28;20497;-62
2022/12/09 09:24:41;;;;;;;33.92;22.42;;;1.60;99.90;;;;;;4962331;28;20043;-62
2022/12/09 09:27:07;;;;;;;39.20;24.23;;;1.50;99.90;;;;;;4961961;28;20112;-62
2022/12/09 09:29:33;;;;;;;35.05;24.45;;;1.10;99.90;;;;;;4978321;28;20047;-62
2022/12/09 09:31:59;;;;;;;34.88;22.85;;;1.70;99.90;;;;;;4962278;28;20089;-63
2022/12/09 09:34:26;;;;;;;33.70;24.17;;;2.30;99.90;;;;;;4962278;28;20070;-62
2022/12/09 09:36:53;;;;;;;34.33;23.98;;;3.10;99.90;;;;;;4962271;28;20430;-62
2022/12/09 09:39:19;;;;;;;35.08;23.45;;;3.30;99.90;;;;;;4961427;28;20047;-62
2022/12/09 09:41:53;;;;;;;33.17;21.67;;;3.20;99.90;;;;;;4962383;28;20465;-62
2022/12/09 09:44:22;;;;;;;32.80;23.48;;;3.70;99.90;;;;;;4961240;28;20043;-62
2022/12/09 09:46:49;;;;;;;34.72;26.20;;;4.10;99.90;;;;;;4963023;28;20477;-63
2022/12/09 09:49:38;;;;;;;32.80;24.13;;;4.20;99.90;;;;;;4962116;28;20408;-63
2022/12/09 09:52:11;;;;;;;33.33;24.02;;;4.20;99.90;;;;;;4964993;28;20061;-63
2022/12/09 09:54:37;;;;;;;33.90;23.73;;;4.30;99.90;;;;;;4961052;28;20109;-61
2022/12/09 09:57:31;;;;;;;34.50;25.65;;;4.60;99.90;;;;;;4961830;28;20051;-63
2022/12/09 10:00:20;;;;;;;31.42;23.52;;;4.70;99.90;;;;;;4977837;28;20043;-64
2022/12/09 10:02:57;;;;;;;31.75;23.35;;;4.80;99.90;;;;;;4962625;28;20054;-63
2022/12/09 10:05:31;;;;;;;31.95;23.25;;;4.60;99.90;;;;;;4971746;28;20050;-63
2022/12/09 10:08:25;;;;;;;31.08;23.60;;;5.30;99.90;;;;;;4960946;28;20133;-64
2022/12/09 10:11:25;;;;;;;31.52;22.65;;;5.30;99.90;;;;;;4962055;28;20050;-63
2022/12/09 10:13:58;;;;;;;32.88;23.48;;;5.10;99.90;;;;;;4962111;28;20043;-63
2022/12/09 10:16:41;;;;;;;31.17;22.95;;;5.30;99.90;;;;;;4961607;28;20051;-63
2022/12/09 10:19:15;;;;;;;30.95;23.55;;;5.50;99.90;;;;;;4962396;28;20186;-63
2022/12/09 10:21:44;;;;;;;33.00;24.47;;;5.40;99.90;;;;;;4959929;28;20080;-63
2022/12/09 10:24:26;;;;;;;32.53;24.98;;;5.20;99.90;;;;;;4978076;28;20437;-63
2022/12/09 10:27:24;;;;;;;37.50;26.38;;;4.90;99.90;;;;;;4981243;28;20409;-63
2022/12/09 10:30:10;;;;;;;34.65;25.40;;;4.90;99.90;;;;;;4970949;28;20065;-62
2022/12/09 10:32:37;;;;;;;35.63;25.60;;;4.90;99.90;;;;;;4964032;28;20042;-63
2022/12/09 10:35:24;;;;;;;34.28;23.95;;;4.80;99.90;;;;;;4965232;28;20039;-63
2022/12/09 10:37:52;;;;;;;38.78;27.10;;;4.20;99.90;;;;;;4962080;28;20053;-63
2022/12/09 10:40:31;;;;;;;34.97;26.30;;;3.90;99.90;;;;;;4970961;28;20039;-63
2022/12/09 10:45:44;;;;;;;;;;;3.10;99.90;;;;;;4984708;28;20765;-62
2022/12/09 10:48:42;;;;;;;39.25;26.17;;;2.40;99.90;;;;;;4984262;28;19970;-63
2022/12/09 10:51:23;;;;;;;33.92;21.52;;;2.20;99.90;;;;;;4986986;28;20054;-62
2022/12/09 10:53:56;;;;;;;35.25;19.85;;;2.20;99.90;;;;;;4983011;28;20054;-63
2022/12/09 10:56:25;;;;;;;43.25;29.83;;;1.90;99.90;;;;;;4983817;28;20072;-63
2022/12/09 10:59:20;;;;;;;40.35;25.02;;;1.90;99.90;;;;;;4983565;28;20048;-63
2022/12/09 11:02:09;;;;;;;46.80;30.00;;;1.70;99.90;;;;;;4986036;28;20086;-63
2022/12/09 11:04:45;;;;;;;45.45;27.63;;;1.40;99.90;;;;;;4976890;28;20047;-63
2022/12/09 11:07:10;;;;;;;83.05;30.15;;;1.80;99.90;;;;;;4971150;28;20054;-63
2022/12/09 11:09:42;;;;;;;95.07;28.52;;;1.30;99.90;;;;;;4963570;28;20046;-63
2022/12/09 11:12:25;;;;;;;59.03;26.05;;;1.50;99.90;;;;;;4964209;28;20738;-62
2022/12/09 11:14:56;;;;;;;100.97;26.08;;;0.60;99.90;;;;;;4963725;28;20047;-62
2022/12/09 11:17:38;;;;;;;92.20;24.80;;;0.70;99.90;;;;;;4975749;28;20565;-62
2022/12/09 11:20:04;;;;;;;50.42;21.23;;;0.20;99.90;;;;;;4984382;28;20097;-63
2022/12/09 11:22:37;;;;;;;60.53;23.67;;;0.40;99.90;;;;;;4984542;28;20046;-63
2022/12/09 11:25:14;;;;;;;75.65;27.35;;;0.00;99.90;;;;;;4984596;28;20053;-63
2022/12/09 11:27:54;;;;;;;51.38;20.48;;;0.90;99.90;;;;;;4984108;28;20129;-61
2022/12/09 11:30:27;;;;;;;90.10;26.58;;;0.40;99.90;;;;;;4983290;28;20042;-61
2022/12/09 11:33:15;;;;;;;33.80;15.60;;;0.30;99.90;;;;;;4983656;28;20053;-61
2022/12/09 11:35:43;;;;;;;69.57;26.10;;;-0.20;99.90;;;;;;4983017;28;20062;-61
2022/12/09 11:38:23;;;;;;;30.38;17.38;;;0.50;99.90;;;;;;4965001;28;20078;-62
2022/12/09 11:41:10;;;;;;;40.35;21.45;;;-0.20;99.90;;;;;;4984238;28;20054;-61
2022/12/09 11:43:41;;;;;;;39.30;19.98;;;0.10;99.90;;;;;;4983210;28;20125;-62
2022/12/09 11:46:28;;;;;;;35.17;17.55;;;0.90;99.90;;;;;;4983851;28;20405;-61
2022/12/09 11:48:59;;;;;;;45.83;21.73;;;0.30;99.90;;;;;;4981797;28;20050;-61
2022/12/09 11:51:29;;;;;;;56.28;23.15;;;-0.20;99.90;;;;;;4983952;28;20046;-60
2022/12/09 11:54:10;;;;;;;47.35;24.00;;;-0.20;99.90;;;;;;4982745;28;20561;-61
2022/12/09 11:56:38;;;;;;;63.17;29.33;;;-0.20;99.90;;;;;;4981700;28;20555;-61
2022/12/09 11:59:13;;;;;;;43.45;21.35;;;0.30;99.90;;;;;;4984206;28;20034;-62
2022/12/09 12:01:51;;;;;;;46.10;20.55;;;-0.30;99.90;;;;;;4983968;28;20050;-61
2022/12/09 12:04:42;;;;;;;45.63;22.63;;;-0.10;99.90;;;;;;4979214;28;20051;-61
2022/12/09 12:07:16;;;;;;;47.05;24.98;;;0.40;99.90;;;;;;4990102;28;20057;-62
2022/12/09 12:09:54;;;;;;;49.28;25.42;;;0.20;99.90;;;;;;4983644;28;20042;-61
2022/12/09 12:12:32;;;;;;;55.20;26.58;;;-0.20;99.90;;;;;;4983660;28;20461;-61
2022/12/09 12:15:08;;;;;;;55.20;26.38;;;0.00;99.90;;;;;;4983466;28;20394;-61
2022/12/09 12:17:39;;;;;;;60.47;28.38;;;0.50;99.90;;;;;;4983022;28;20050;-63
2022/12/09 12:20:09;;;;;;;64.40;31.80;;;-0.10;99.90;;;;;;4982749;28;20207;-62
2022/12/09 12:23:21;;;;;;;83.80;31.58;;;0.10;99.90;;;;;;4982588;28;20046;-62
2022/12/09 12:26:03;;;;;;;46.28;20.13;;;-0.20;99.90;;;;;;4983123;28;20058;-61
2022/12/09 12:28:54;;;;;;;83.45;32.80;;;-0.20;99.90;;;;;;4984079;28;20756;-61
2022/12/09 12:31:48;;;;;;;54.05;24.45;;;-0.20;99.90;;;;;;4981988;28;20054;-61
2022/12/09 12:34:21;;;;;;;49.45;23.15;;;-0.20;99.90;;;;;;4988165;28;20082;-61
2022/12/09 12:36:51;;;;;;;57.80;26.73;;;0.80;99.90;;;;;;4983340;28;20039;-61
2022/12/09 12:39:39;;;;;;;65.13;30.45;;;0.70;99.90;;;;;;4982544;28;20041;-61
2022/12/09 12:46:15;;;;;;;60.97;28.05;;;-0.10;99.90;;;;;;4983297;28;20047;-61
2022/12/09 12:46:16;;;;;;;55.40;23.25;;;-0.10;99.90;;;;;;4999357;28;20704;-61
2022/12/09 12:48:57;;;;;;;69.25;30.85;;;-0.10;99.90;;;;;;4982715;28;20053;-62
2022/12/09 12:51:55;;;;;;;68.20;31.80;;;0.20;99.90;;;;;;4981710;28;20050;-62
2022/12/09 12:54:48;;;;;;;68.00;32.00;;;-0.10;99.90;;;;;;4981164;28;20050;-62